createdAt,value
2019-05-25T00:01:21.581Z,10.58
2019-05-25T00:03:52.704Z,10.95
2019-05-25T00:06:22.837Z,10.00
2019-05-25T00:08:52.996Z,10.80
2019-05-25T00:11:23.111Z,10.18
2019-05-25T00:13:53.281Z,9.93
2019-05-25T00:16:23.392Z,10.48
2019-05-25T00:18:53.581Z,10.38
2019-05-25T00:21:23.735Z,9.25
2019-05-25T00:23:54.270Z,10.65
2019-05-25T00:26:24.514Z,9.03
2019-05-25T00:28:54.702Z,9.53
2019-05-25T00:31:24.844Z,8.78
2019-05-25T00:33:55.019Z,8.45
2019-05-25T00:36:25.302Z,9.53
2019-05-25T00:38:56.481Z,9.05
2019-05-25T00:41:26.637Z,8.98
2019-05-25T00:43:56.745Z,8.60
2019-05-25T00:46:26.896Z,8.50
2019-05-25T00:48:59.141Z,8.48
2019-05-25T00:51:29.259Z,7.92
2019-05-25T00:53:59.402Z,8.18
2019-05-25T00:56:29.517Z,7.92
2019-05-25T00:58:59.638Z,7.67
2019-05-25T01:01:29.751Z,7.10
2019-05-25T01:04:01.645Z,7.85
2019-05-25T01:06:32.066Z,8.13
2019-05-25T01:09:02.231Z,8.00
2019-05-25T01:11:33.452Z,7.92
2019-05-25T01:14:03.577Z,7.45
2019-05-25T01:16:33.735Z,7.58
2019-05-25T01:19:03.914Z,7.65
2019-05-25T01:21:34.606Z,7.03
2019-05-25T01:24:04.894Z,7.58
2019-05-25T01:26:35.025Z,7.03
2019-05-25T01:29:05.177Z,7.28
2019-05-25T01:31:35.285Z,7.22
2019-05-25T01:34:05.575Z,7.35
2019-05-25T01:36:35.678Z,7.50
2019-05-25T01:39:07.393Z,7.08
2019-05-25T01:41:37.517Z,7.45
2019-05-25T01:44:07.651Z,7.50
2019-05-25T01:46:37.805Z,6.62
2019-05-25T01:49:07.958Z,6.70
2019-05-25T01:51:38.236Z,7.08
2019-05-25T01:54:08.463Z,6.70
2019-05-25T01:56:38.586Z,6.37
2019-05-25T01:59:08.743Z,7.05
2019-05-25T02:01:38.865Z,6.58
2019-05-25T02:04:09.022Z,7.00
2019-05-25T02:06:39.177Z,7.40
2019-05-25T02:09:09.313Z,6.72
2019-05-25T02:11:39.568Z,7.60
2019-05-25T02:14:09.731Z,8.43
2019-05-25T02:16:39.874Z,6.87
2019-05-25T02:19:11.014Z,7.08
2019-05-25T02:21:41.157Z,6.58
2019-05-25T02:24:11.275Z,7.47
2019-05-25T02:26:42.384Z,6.85
2019-05-25T02:29:12.500Z,7.10
2019-05-25T02:31:42.654Z,6.37
2019-05-25T02:34:12.905Z,6.65
2019-05-25T02:36:43.027Z,6.87
2019-05-25T02:39:11.778Z,7.40
2019-05-25T02:41:41.881Z,6.53
2019-05-25T02:44:12.025Z,6.58
2019-05-25T02:46:42.213Z,6.67
2019-05-25T02:49:12.351Z,6.83
2019-05-25T02:51:42.481Z,5.97
2019-05-25T02:54:12.619Z,7.60
2019-05-25T02:56:43.469Z,17.17
2019-05-25T02:59:13.693Z,16.00
2019-05-25T03:01:43.816Z,14.70
2019-05-25T03:04:13.934Z,11.95
2019-05-25T03:06:44.134Z,13.98
2019-05-25T03:09:14.288Z,12.63
2019-05-25T03:11:44.481Z,9.85
2019-05-25T03:14:14.624Z,9.90
2019-05-25T03:16:44.777Z,10.23
2019-05-25T03:19:14.889Z,9.68
2019-05-25T03:21:45.110Z,9.98
2019-05-25T03:24:15.227Z,9.98
2019-05-25T03:26:45.391Z,9.90
2019-05-25T03:29:15.519Z,10.08
2019-05-25T03:31:45.678Z,9.85
2019-05-25T03:34:15.841Z,10.25
2019-05-25T03:36:45.999Z,9.58
2019-05-25T03:39:16.109Z,9.20
2019-05-25T03:41:46.267Z,9.83
2019-05-25T03:44:16.381Z,9.55
2019-05-25T03:46:46.527Z,9.68
2019-05-25T03:49:16.629Z,9.38
2019-05-25T03:51:46.794Z,8.95
2019-05-25T03:54:16.951Z,9.43
2019-05-25T03:56:47.118Z,9.43
2019-05-25T03:59:17.269Z,8.83
2019-05-25T04:01:47.398Z,9.10
2019-05-25T04:04:17.547Z,8.85
2019-05-25T04:06:47.676Z,8.48
2019-05-25T04:09:17.835Z,8.53
2019-05-25T04:11:48.146Z,8.58
2019-05-25T04:14:18.522Z,8.65
2019-05-25T04:16:49.556Z,8.20
2019-05-25T04:19:19.698Z,8.20
2019-05-25T04:21:49.941Z,7.67
2019-05-25T04:24:20.072Z,7.08
2019-05-25T04:26:50.222Z,4.87
2019-05-25T04:29:20.372Z,5.10
2019-05-25T04:31:50.592Z,4.60
2019-05-25T04:34:23.141Z,5.28
2019-05-25T04:36:53.303Z,4.97
2019-05-25T04:39:23.428Z,5.50
2019-05-25T04:41:53.572Z,5.62
2019-05-25T04:44:23.686Z,5.53
2019-05-25T04:46:53.843Z,5.30
2019-05-25T04:49:23.956Z,5.40
2019-05-25T04:51:54.535Z,6.00
2019-05-25T04:54:24.717Z,5.30
2019-05-25T04:56:54.834Z,5.50
2019-05-25T04:59:25.054Z,5.33
2019-05-25T05:01:55.165Z,5.20
2019-05-25T05:04:25.309Z,4.90
2019-05-25T05:06:55.423Z,5.42
2019-05-25T05:09:25.585Z,5.40
2019-05-25T05:11:55.742Z,5.28
2019-05-25T05:14:25.850Z,5.30
2019-05-25T05:16:55.990Z,6.67
2019-05-25T05:19:26.104Z,7.00
2019-05-25T05:21:56.249Z,6.72
2019-05-25T05:24:26.400Z,6.80
2019-05-25T05:26:56.646Z,6.58
2019-05-25T05:29:26.849Z,7.05
2019-05-25T05:31:58.162Z,6.40
2019-05-25T05:34:28.317Z,6.55
2019-05-25T05:36:58.436Z,6.60
2019-05-25T05:39:29.358Z,8.45
2019-05-25T05:41:59.477Z,9.48
2019-05-25T05:44:29.714Z,9.88
2019-05-25T05:47:00.072Z,9.38
2019-05-25T05:49:30.252Z,10.40
2019-05-25T05:52:02.991Z,10.85
2019-05-25T05:54:33.315Z,11.73
2019-05-25T05:57:12.518Z,12.47
2019-05-25T05:59:35.346Z,14.18
2019-05-25T06:02:05.507Z,14.15
2019-05-25T06:04:35.615Z,13.83
2019-05-25T06:07:05.766Z,14.55
2019-05-25T06:09:35.956Z,13.98
2019-05-25T06:12:06.150Z,13.75
2019-05-25T06:14:36.325Z,13.83
2019-05-25T06:17:06.479Z,13.45
2019-05-25T06:19:36.665Z,13.35
2019-05-25T06:22:06.851Z,13.08
2019-05-25T06:24:36.996Z,13.18
2019-05-25T06:27:07.117Z,13.53
2019-05-25T06:29:37.244Z,12.98
2019-05-25T06:32:08.055Z,13.53
2019-05-25T06:34:38.430Z,13.28
2019-05-25T06:37:08.548Z,12.43
2019-05-25T06:39:38.798Z,12.60
2019-05-25T06:42:09.004Z,12.30
2019-05-25T06:44:40.091Z,12.55
2019-05-25T06:47:10.858Z,12.15
2019-05-25T06:49:40.976Z,12.10
2019-05-25T06:52:11.252Z,12.47
2019-05-25T06:54:41.404Z,11.45
2019-05-25T06:57:11.542Z,12.15
2019-05-25T06:59:41.691Z,12.00
2019-05-25T07:02:11.819Z,11.30
2019-05-25T07:04:41.999Z,10.98
2019-05-25T07:07:12.119Z,11.20
2019-05-25T07:09:42.237Z,12.25
2019-05-25T07:12:12.444Z,11.40
2019-05-25T07:14:43.330Z,12.07
2019-05-25T07:17:14.054Z,10.90
2019-05-25T07:19:44.212Z,11.83
2019-05-25T07:22:14.515Z,11.68
2019-05-25T07:24:44.644Z,10.58
2019-05-25T07:27:15.258Z,11.57
2019-05-25T07:29:45.376Z,10.50
2019-05-25T07:32:15.793Z,10.80
2019-05-25T07:34:45.918Z,10.75
2019-05-25T07:37:16.065Z,10.38
2019-05-25T07:39:46.257Z,10.40
2019-05-25T07:42:19.903Z,10.53
2019-05-25T07:44:48.396Z,10.63
2019-05-25T07:47:18.526Z,10.10
2019-05-25T07:49:48.780Z,10.40
2019-05-25T07:52:18.910Z,10.18
2019-05-25T07:54:49.090Z,10.93
2019-05-25T07:57:19.717Z,10.13
2019-05-25T07:59:50.148Z,10.68
2019-05-25T08:02:20.258Z,9.95
2019-05-25T08:04:51.118Z,9.88
2019-05-25T08:07:21.449Z,10.32
2019-05-25T08:09:51.590Z,9.53
2019-05-25T08:12:21.745Z,9.98
2019-05-25T08:14:51.865Z,9.78
2019-05-25T08:17:21.980Z,9.60
2019-05-25T08:19:55.235Z,9.13
2019-05-25T08:22:25.342Z,8.93
2019-05-25T08:24:55.471Z,9.00
2019-05-25T08:27:25.578Z,9.20
2019-05-25T08:29:55.708Z,9.30
2019-05-25T08:32:25.936Z,9.05
2019-05-25T08:34:56.122Z,9.75
2019-05-25T08:37:26.239Z,8.60
2019-05-25T08:39:56.391Z,9.08
2019-05-25T08:42:26.817Z,8.90
2019-05-25T08:44:56.928Z,9.33
2019-05-25T08:47:28.252Z,8.95
2019-05-25T08:49:58.718Z,9.40
2019-05-25T08:52:28.831Z,8.15
2019-05-25T08:54:58.995Z,8.33
2019-05-25T08:57:29.230Z,8.50
2019-05-25T08:59:59.404Z,9.15
2019-05-25T09:02:31.508Z,8.88
2019-05-25T09:05:02.379Z,7.97
2019-05-25T09:07:32.544Z,8.58
2019-05-25T09:10:05.151Z,8.18
2019-05-25T09:12:35.442Z,8.38
2019-05-25T09:15:06.143Z,8.18
2019-05-25T09:17:36.514Z,7.85
2019-05-25T09:20:06.909Z,7.50
2019-05-25T09:22:38.103Z,8.18
2019-05-25T09:25:08.822Z,7.60
2019-05-25T09:27:39.282Z,7.50
2019-05-25T09:30:09.432Z,8.20
2019-05-25T09:32:39.981Z,8.25
2019-05-25T09:35:14.145Z,7.75
2019-05-25T09:37:42.744Z,7.70
2019-05-25T09:40:11.313Z,7.90
2019-05-25T09:42:41.866Z,7.78
2019-05-25T09:45:14.163Z,7.60
2019-05-25T09:47:44.167Z,7.50
2019-05-25T09:50:14.361Z,8.00
2019-05-25T09:52:44.511Z,7.10
2019-05-25T09:55:14.653Z,7.47
2019-05-25T09:57:44.838Z,7.65
2019-05-25T10:00:15.167Z,7.00
2019-05-25T10:02:45.728Z,7.17
2019-05-25T10:05:16.854Z,7.30
2019-05-25T10:07:47.018Z,7.03
2019-05-25T10:10:17.150Z,7.42
2019-05-25T10:12:47.289Z,7.05
2019-05-25T10:15:17.467Z,6.90
2019-05-25T10:17:47.577Z,6.60
2019-05-25T10:20:17.885Z,6.60
2019-05-25T10:22:48.073Z,7.42
2019-05-25T10:25:18.226Z,6.92
2019-05-25T10:27:48.374Z,6.47
2019-05-25T10:30:18.559Z,7.10
2019-05-25T10:32:48.734Z,7.05
2019-05-25T10:35:18.922Z,6.90
2019-05-25T10:37:49.253Z,6.65
2019-05-25T10:40:19.925Z,6.70
2019-05-25T10:42:50.114Z,6.58
2019-05-25T10:45:20.237Z,7.10
2019-05-25T10:47:50.450Z,6.67
2019-05-25T10:50:21.697Z,6.97
2019-05-25T10:52:51.823Z,6.80
2019-05-25T10:55:21.965Z,6.40
2019-05-25T10:57:52.176Z,6.37
2019-05-25T11:00:22.318Z,6.58
2019-05-25T11:02:52.505Z,6.87
2019-05-25T11:05:22.657Z,6.42
2019-05-25T11:07:52.761Z,6.80
2019-05-25T11:10:22.909Z,6.05
2019-05-25T11:12:53.154Z,6.80
2019-05-25T11:15:23.283Z,6.33
2019-05-25T11:17:52.040Z,6.00
2019-05-25T11:20:22.451Z,6.17
2019-05-25T11:22:52.556Z,6.55
2019-05-25T11:25:22.713Z,6.30
2019-05-25T11:27:52.891Z,6.28
2019-05-25T11:30:23.687Z,6.12
2019-05-25T11:32:53.869Z,6.00
2019-05-25T11:35:24.019Z,6.17
2019-05-25T11:37:54.200Z,5.78
2019-05-25T11:40:24.354Z,6.12
2019-05-25T11:42:54.465Z,5.92
2019-05-25T11:45:24.617Z,5.83
2019-05-25T11:47:54.728Z,6.20
2019-05-25T11:50:25.038Z,6.35
2019-05-25T11:52:55.184Z,6.20
2019-05-25T11:55:25.342Z,6.25
2019-05-25T11:57:55.448Z,5.83
2019-05-25T12:00:26.181Z,6.70
2019-05-25T12:02:56.316Z,5.67
2019-05-25T12:05:26.545Z,6.47
2019-05-25T12:07:56.661Z,5.35
2019-05-25T12:10:27.312Z,6.28
2019-05-25T12:12:57.442Z,5.30
2019-05-25T12:15:27.572Z,5.87
2019-05-25T12:17:57.761Z,5.60
2019-05-25T12:20:27.902Z,5.90
2019-05-25T12:22:58.025Z,5.70
2019-05-25T12:25:28.519Z,5.62
2019-05-25T12:27:58.631Z,5.75
2019-05-25T12:30:39.853Z,5.87
2019-05-25T12:32:59.077Z,5.65
2019-05-25T12:35:30.381Z,5.95
2019-05-25T12:38:00.481Z,5.80
2019-05-25T12:40:30.762Z,5.70
2019-05-25T12:42:59.997Z,5.90
2019-05-25T12:45:30.288Z,5.72
2019-05-25T12:48:00.397Z,5.42
2019-05-25T12:50:30.931Z,5.62
2019-05-25T12:53:01.042Z,5.58
2019-05-25T12:55:31.222Z,5.50
2019-05-25T12:58:04.300Z,5.42
2019-05-25T13:00:34.418Z,5.95
2019-05-25T13:03:04.642Z,6.20
2019-05-25T13:05:34.950Z,5.28
2019-05-25T13:08:06.103Z,5.75
2019-05-25T13:10:36.205Z,5.70
2019-05-25T13:13:06.441Z,6.17
2019-05-25T13:15:36.689Z,5.47
2019-05-25T13:18:06.796Z,5.37
2019-05-25T13:20:37.105Z,5.40
2019-05-25T13:23:07.564Z,6.62
2019-05-25T13:25:37.673Z,5.60
2019-05-25T13:28:07.819Z,5.35
2019-05-25T13:30:38.016Z,5.37
2019-05-25T13:33:10.866Z,5.92
2019-05-25T13:35:41.029Z,5.70
2019-05-25T13:38:11.298Z,5.47
2019-05-25T13:40:41.432Z,5.10
2019-05-25T13:43:11.735Z,5.42
2019-05-25T13:45:46.024Z,5.03
2019-05-25T13:48:14.817Z,5.10
2019-05-25T13:50:45.285Z,4.95
2019-05-25T13:53:15.511Z,5.60
2019-05-25T13:55:45.617Z,5.30
2019-05-25T13:58:15.802Z,5.67
2019-05-25T14:00:46.022Z,5.20
2019-05-25T14:03:16.201Z,5.62
2019-05-25T14:05:46.360Z,5.03
2019-05-25T14:08:18.088Z,5.00
2019-05-25T14:10:48.319Z,5.47
2019-05-25T14:13:18.457Z,5.10
2019-05-25T14:15:48.672Z,5.42
2019-05-25T14:18:18.826Z,5.50
2019-05-25T14:20:48.986Z,5.35
2019-05-25T14:23:19.203Z,5.28
2019-05-25T14:25:49.313Z,4.90
2019-05-25T14:28:19.476Z,5.35
2019-05-25T14:30:49.702Z,5.50
2019-05-25T14:33:19.820Z,5.05
2019-05-25T14:35:50.068Z,5.22
2019-05-25T14:38:20.169Z,4.97
2019-05-25T14:40:50.353Z,4.78
2019-05-25T14:43:20.570Z,5.00
2019-05-25T14:45:53.336Z,5.03
2019-05-25T14:48:22.889Z,5.37
2019-05-25T14:50:53.289Z,5.17
2019-05-25T14:53:23.582Z,5.00
2019-05-25T14:55:53.847Z,4.65
2019-05-25T14:58:24.179Z,5.10
2019-05-25T15:00:54.349Z,4.90
2019-05-25T15:03:24.670Z,5.08
2019-05-25T15:05:54.868Z,4.50
2019-05-25T15:08:24.962Z,4.70
2019-05-25T15:10:55.283Z,5.03
2019-05-25T15:13:25.643Z,5.15
2019-05-25T15:15:55.926Z,5.03
2019-05-25T15:18:26.214Z,5.67
2019-05-25T15:20:56.578Z,4.80
2019-05-25T15:23:26.914Z,4.80
2019-05-25T15:25:57.221Z,4.53
2019-05-25T15:28:27.537Z,4.70
2019-05-25T15:30:58.697Z,4.85
2019-05-25T15:33:29.040Z,4.87
2019-05-25T15:35:59.447Z,4.72
2019-05-25T15:38:29.733Z,4.12
2019-05-25T15:40:59.953Z,4.60
2019-05-25T15:43:30.201Z,4.90
2019-05-25T15:46:00.326Z,4.60
2019-05-25T15:48:30.859Z,4.83
2019-05-25T15:51:01.145Z,4.50
2019-05-25T15:53:31.448Z,5.05
2019-05-25T15:56:01.733Z,4.12
2019-05-25T15:58:32.028Z,4.53
2019-05-25T16:01:02.277Z,4.80
2019-05-25T16:03:32.541Z,4.60
2019-05-25T16:06:03.027Z,4.15
2019-05-25T16:08:33.549Z,4.80
2019-05-25T16:11:03.806Z,4.75
2019-05-25T16:13:34.066Z,4.92
2019-05-25T16:16:04.324Z,4.95
2019-05-25T16:18:35.673Z,4.53
2019-05-25T16:21:05.969Z,5.25
2019-05-25T16:23:36.150Z,4.80
2019-05-25T16:26:06.444Z,4.78
2019-05-25T16:28:36.798Z,4.30
2019-05-25T16:31:07.301Z,4.60
2019-05-25T16:33:37.595Z,4.40
2019-05-25T16:36:07.853Z,4.33
2019-05-25T16:38:38.133Z,4.72
2019-05-25T16:41:08.493Z,4.40
2019-05-25T16:43:38.924Z,4.60
2019-05-25T16:46:09.250Z,4.70
2019-05-25T16:48:39.530Z,4.47
2019-05-25T16:51:09.793Z,4.25
2019-05-25T16:53:40.115Z,4.53
2019-05-25T16:56:10.438Z,4.37
2019-05-25T16:58:40.689Z,4.60
2019-05-25T17:01:11.010Z,4.95
2019-05-25T17:03:41.403Z,4.35
2019-05-25T17:06:11.585Z,4.37
2019-05-25T17:08:41.822Z,4.78
2019-05-25T17:11:12.098Z,4.83
2019-05-25T17:13:42.351Z,5.17
2019-05-25T17:16:12.680Z,6.30
2019-05-25T17:18:42.952Z,6.22
2019-05-25T17:21:13.143Z,6.62
2019-05-25T17:23:43.430Z,7.37
2019-05-25T17:26:13.656Z,7.30
2019-05-25T17:28:44.088Z,7.65
2019-05-25T17:31:14.400Z,7.17
2019-05-25T17:33:46.489Z,6.90
2019-05-25T17:36:16.711Z,7.10
2019-05-25T17:38:47.005Z,7.45
2019-05-25T17:41:17.326Z,6.28
2019-05-25T17:43:47.612Z,7.25
2019-05-25T17:46:18.180Z,6.72
2019-05-25T17:48:48.514Z,6.62
2019-05-25T17:51:18.776Z,5.58
2019-05-25T17:53:48.974Z,6.92
2019-05-25T17:56:19.366Z,6.40
2019-05-25T17:58:49.654Z,6.25
2019-05-25T18:01:20.405Z,6.35
2019-05-25T18:04:05.444Z,6.72
2019-05-25T18:06:22.674Z,6.80
2019-05-25T18:08:53.006Z,5.92
2019-05-25T18:11:23.254Z,6.00
2019-05-25T18:13:53.500Z,5.70
2019-05-25T18:16:23.754Z,5.92
2019-05-25T18:18:54.021Z,6.55
2019-05-25T18:21:24.346Z,6.97
2019-05-25T18:23:54.579Z,7.67
2019-05-25T18:26:24.868Z,28.00
2019-05-25T18:28:55.183Z,30.40
2019-05-25T18:31:25.491Z,22.05
2019-05-25T18:33:55.983Z,34.27
2019-05-25T18:36:26.373Z,24.72
2019-05-25T18:38:56.820Z,28.98
2019-05-25T18:41:27.069Z,28.92
2019-05-25T18:43:57.347Z,31.02
2019-05-25T18:46:27.684Z,49.63
2019-05-25T18:48:58.047Z,43.58
2019-05-25T18:51:28.267Z,37.55
2019-05-25T18:53:58.501Z,34.50
2019-05-25T18:56:28.713Z,25.82
2019-05-25T18:58:59.149Z,24.82
2019-05-25T19:01:29.508Z,24.20
2019-05-25T19:03:59.706Z,21.52
2019-05-25T19:06:30.445Z,19.50
2019-05-25T19:09:00.829Z,16.07
2019-05-25T19:11:35.545Z,14.53
2019-05-25T19:14:03.458Z,13.53
2019-05-25T19:16:33.793Z,11.57
2019-05-25T19:19:04.143Z,13.48
2019-05-25T19:21:35.355Z,11.28
2019-05-25T19:24:05.749Z,11.88
2019-05-25T19:26:46.207Z,10.43
2019-05-25T19:29:16.455Z,11.38
2019-05-25T19:31:46.853Z,12.30
2019-05-25T19:34:17.221Z,13.90
2019-05-25T19:36:47.505Z,12.50
2019-05-25T19:39:17.893Z,12.20
2019-05-25T19:41:48.276Z,14.18
2019-05-25T19:44:19.506Z,16.50
2019-05-25T19:46:50.030Z,20.30
2019-05-25T19:49:20.284Z,19.40
2019-05-25T19:51:50.690Z,32.90
2019-05-25T19:54:21.069Z,33.13
2019-05-25T19:56:51.396Z,22.58
2019-05-25T19:59:21.673Z,16.50
2019-05-25T20:01:51.889Z,17.42
2019-05-25T20:04:22.224Z,20.68
2019-05-25T20:06:52.496Z,18.98
2019-05-25T20:09:22.660Z,20.43
2019-05-25T20:11:52.978Z,19.07
2019-05-25T20:14:23.199Z,18.67
2019-05-25T20:16:53.562Z,16.40
2019-05-25T20:19:23.839Z,19.27
2019-05-25T20:21:55.129Z,19.77
2019-05-25T20:24:25.437Z,16.97
2019-05-25T20:26:55.719Z,20.00
2019-05-25T20:29:26.068Z,22.58
2019-05-25T20:31:56.447Z,19.57
2019-05-25T20:34:26.688Z,21.20
2019-05-25T20:36:56.837Z,19.37
2019-05-25T20:39:27.254Z,17.07
2019-05-25T20:41:57.519Z,16.40
2019-05-25T20:44:27.731Z,16.65
2019-05-25T20:46:58.031Z,16.00
2019-05-25T20:49:28.306Z,22.22
2019-05-25T20:51:58.557Z,20.75
2019-05-25T20:54:29.807Z,24.80
2019-05-25T20:57:01.085Z,29.20
2019-05-25T20:59:31.411Z,34.25
2019-05-25T21:02:01.767Z,20.37
2019-05-25T21:04:32.132Z,32.65
2019-05-25T21:07:02.552Z,38.15
2019-05-25T21:09:32.869Z,22.15
2019-05-25T21:12:03.169Z,31.45
2019-05-25T21:14:33.476Z,36.17
2019-05-25T21:17:03.838Z,37.78
2019-05-25T21:19:34.122Z,27.67
2019-05-25T21:22:04.383Z,27.60
2019-05-25T21:24:34.607Z,29.20
2019-05-25T21:27:05.023Z,27.93
2019-05-25T21:29:35.358Z,27.37
2019-05-25T21:32:06.613Z,33.15
2019-05-25T21:34:36.881Z,27.13
2019-05-25T21:37:07.141Z,23.90
2019-05-25T21:39:37.534Z,25.12
2019-05-25T21:42:07.855Z,25.68
2019-05-25T21:44:38.112Z,23.83
2019-05-25T21:47:08.396Z,24.57
2019-05-25T21:49:38.656Z,23.32
2019-05-25T21:52:08.935Z,23.35
2019-05-25T21:54:39.204Z,24.50
2019-05-25T21:57:09.453Z,23.45
2019-05-25T21:59:39.713Z,23.70
2019-05-25T22:02:13.779Z,24.70
2019-05-25T22:04:44.052Z,22.67
2019-05-25T22:07:14.404Z,23.67
2019-05-25T22:09:44.779Z,26.27
2019-05-25T22:12:15.093Z,24.02
2019-05-25T22:14:45.365Z,24.55
2019-05-25T22:17:15.591Z,25.85
2019-05-25T22:19:45.936Z,25.48
2019-05-25T22:22:16.187Z,25.20
2019-05-25T22:24:46.567Z,24.57
2019-05-25T22:27:16.814Z,23.75
2019-05-25T22:29:47.054Z,24.37
2019-05-25T22:32:17.314Z,24.15
2019-05-25T22:34:47.712Z,24.77
2019-05-25T22:37:17.922Z,23.98
2019-05-25T22:39:48.392Z,24.92
2019-05-25T22:42:18.675Z,25.23
2019-05-25T22:44:48.965Z,22.93
2019-05-25T22:47:19.274Z,22.65
2019-05-25T22:49:49.719Z,22.93
2019-05-25T22:52:19.969Z,22.95
2019-05-25T22:54:50.239Z,23.75
2019-05-25T22:57:20.444Z,22.67
2019-05-25T22:59:50.775Z,23.65
2019-05-25T23:02:21.164Z,21.50
2019-05-25T23:04:51.375Z,22.55
2019-05-25T23:07:21.746Z,21.93
2019-05-25T23:09:51.953Z,22.73
2019-05-25T23:12:22.283Z,22.27
2019-05-25T23:14:53.564Z,21.75
2019-05-25T23:17:23.954Z,20.25
2019-05-25T23:19:54.277Z,20.90
2019-05-25T23:22:24.703Z,21.85
2019-05-25T23:24:54.968Z,19.67
2019-05-25T23:27:25.309Z,20.17
2019-05-25T23:29:55.528Z,19.87
2019-05-25T23:32:25.803Z,20.97
2019-05-25T23:34:56.079Z,20.43
2019-05-25T23:37:26.331Z,20.08
2019-05-25T23:39:56.879Z,19.12
2019-05-25T23:42:27.190Z,18.60
2019-05-25T23:44:57.421Z,19.90
2019-05-25T23:47:27.660Z,19.07
2019-05-25T23:49:59.745Z,18.45
2019-05-25T23:52:29.912Z,17.73
2019-05-25T23:55:00.209Z,18.48
2019-05-25T23:57:30.568Z,17.50
